New Delhi, India

8:15 AM IST on September 28, 2016 (GMT +0530)
Indira Gandhi International | | Change Station

Elev 764 ft 28.57 °N, 77.12 °E | Updated 15 minutes ago

Mist
Mist
84 °F
Feels Like 94 °F
N
0
Wind Variable Wind from North

Today
High -- | Low -- °F
--% Chance of Precip.
Yesterday
High -- | Low -- °F
Precip. -- in
Pressure 29.77 in
Visibility 1.3 miles
Clouds
Heat Index 94 °F
Dew Point 77 °F
Humidity 79%
Rainfall 0.00 in
Snow Depth Not available.
6:13 AM 6:10 PM
Waning Crescent, 8% visible
METAR VIDP 280230Z 00000KT 2100 R28/P2000 BR NSC 29/25 Q1008 NOSIG
Pressure 29.77 in
Visibility 1.3 miles
Clouds
Heat Index 94 °F
Dew Point 77 °F
Humidity 79%
Rainfall 0.00 in
Snow Depth Not available.
6:13 AM 6:10 PM
Waning Crescent, 8% visible
METAR VIDP 280230Z 00000KT 2100 R28/P2000 BR NSC 29/25 Q1008 NOSIG

10-Day Weather Forecast

No radar image for this location.
×

Almanac

Astronomy

Sep. 28, 2016 Rise Set
Actual Time
Civil Twilight
Nautical Twilight
Astronomical Twilight
Moon
Length of Visible Light
Length of Day
Tomorrow will be .
, % of the Moon is Illuminated

Today's Extremes

Country Highs Country Lows

Community

WunderPhotos

Upload Photos

1,942,191 photos uploaded!

WunderBlog® & News

Nearby

Air Quality

  Air Quality AQ Index Pollutant
Not available.

Snow Depth

Station Depth Elevation

Earthquake Activity

City Distance Mag. Time & Date
Minimum magnitude displayed is 2.5.

Coastal Water Temperatures

Place Temperature

Stations

Nearby Weather Stations

Station Location Temp. Windchill Dew Point Humidity Wind Precip. Elev Updated Type